• Join FlightAware (Why Join?)
  • Login
  • US Flag 
07:16AM EDT


 

Airport Tracker/Info


-or-


 

Live Flight TrackerFlight Track Log ✈ N449ND ✈ 29-Mar-2014 ✈ KISM - KFPR

Flight Track Log - Related Links

Times and Time Zones

All times are in EDT time to prevent confusion due to time zone crossing. See the N449ND flight status page for this flight to view local times or setup timezone preferences in your user account.

Time Position Orientation Groundspeed Altitude Reporting Facility
EDT Latitude Longitude Course Direction KTS MPH feet Rate Location/Type
11:02AM 28.2667 -81.4167 142° Southeast 72 83 900  Level Orlando TRACON
11:02AM 28.2500 -81.4167 180° South 73 84 1,400 420 Climbing Orlando TRACON
11:03AM 28.2333 -81.3833 120° Southeast 77 89 1,800 420 Climbing Orlando TRACON
11:04AM 28.2333 -81.3667 90° East 89 102 2,300 420 Climbing Orlando TRACON
11:05AM 28.2167 -81.3500 139° Southeast 80 92 2,600 360 Climbing Orlando TRACON
11:06AM 28.2167 -81.3167 90° East 82 94 3,000 180 Climbing Orlando TRACON
11:08AM 28.1833 -81.2833 139° Southeast 100 115 3,100  Climbing Orlando TRACON
11:08AM 28.1833 -81.2667 90° East 106 122 3,100  Level Orlando TRACON
11:09AM 28.1500 -81.2500 156° South 107 123 3,100  Level Orlando TRACON
11:10AM 28.1333 -81.2167 120° Southeast 110 127 3,100 -60 Level Orlando TRACON
11:11AM 28.1167 -81.1833 120° Southeast 104 120 3,000  Descending Orlando TRACON
11:13AM 28.0758 -81.1511 145° Southeast 100 115 3,100  Climbing Miami Center
11:14AM 28.0511 -81.1431 164° South 95 109 3,100 -60 Level Miami Center
11:15AM 28.0283 -81.1331 159° South 95 109 3,000  Descending Miami Center
11:16AM 28.0036 -81.1250 164° South 95 109 3,200  Climbing Miami Center
11:17AM 27.9789 -81.1169 164° South 95 109 3,100 -120 Descending Miami Center
11:18AM 27.9558 -81.1114 168° South 90 104 3,000  Descending Miami Center
11:19AM 27.9378 -81.0919 136° Southeast 90 104 3,100  Climbing Miami Center
11:20AM 27.9242 -81.0539 112° Southeast 109 125 3,100  Level Miami Center
11:21AM 27.9147 -81.0206 108° East 114 131 3,100  Level Miami Center
11:22AM 27.9053 -80.9850 107° East 114 131 3,100 -60 Level Miami Center
11:23AM 27.8936 -80.9586 117° Southeast 114 131 3,000 -60 Descending Miami Center
11:24AM 27.8778 -80.9322 124° Southeast 114 131 3,000  Level Miami Center
11:25AM 27.8556 -80.9033 131° Southeast 109 125 3,100  Climbing Miami Center
11:26AM 27.8417 -80.8747 119° Southeast 109 125 3,100  Level Miami Center
11:27AM 27.8236 -80.8506 130° Southeast 109 125 3,100  Level Miami Center
11:28AM 27.8031 -80.8358 148° Southeast 103 119 3,100  Level Miami Center
11:29AM 27.7764 -80.8183 150° Southeast 97 112 3,100 -60 Level Miami Center
11:30AM 27.7539 -80.8036 150° Southeast 97 112 3,000  Descending Miami Center
11:31AM 27.7314 -80.7886 149° Southeast 97 112 3,100  Climbing Miami Center
11:32AM 27.7067 -80.7714 148° Southeast 97 112 3,100  Level Miami Center
11:33AM 27.6861 -80.7589 152° Southeast 97 112 3,100  Level Miami Center
11:34AM 27.6617 -80.7442 152° Southeast 97 112 3,100  Level Miami Center
11:35AM 27.6411 -80.7294 148° Southeast 97 112 3,100  Level Miami Center
11:36AM 27.6161 -80.7261 173° South 97 112 3,100  Level Miami Center
11:37AM 27.5892 -80.7228 174° South 91 105 3,100 -360 Level Miami Center
11:38AM 27.5642 -80.7197 174° South 91 105 2,400 -540 Descending Miami Center
11:39AM 27.5369 -80.7211 183° South 91 105 2,100 -240 Descending Miami Center
11:40AM 27.5183 -80.7136 160° South 91 105 2,000  Descending Miami Center
11:41AM 27.5108 -80.6806 104° East 84 97 2,100  Climbing Miami Center
11:42AM 27.5097 -80.6431 92° East 105 121 2,100  Level Miami Center
11:43AM 27.5067 -80.6053 95° East 110 127 2,100 -180 Level Miami Center
11:44AM 27.5033 -80.5703 96° East 110 127 1,800 -120 Descending Miami Center
11:45AM 27.5000 -80.5397 97° East 110 127 1,900  Climbing Miami Center
11:46AM 27.4944 -80.5067 101° East 105 121 1,900 -120 Level Miami Center
11:47AM 27.4997 -80.4694 81° East 105 121 1,700 -300 Descending Miami Center
11:48AM 27.5006 -80.4367 88° East 100 115 1,400 -420 Descending Miami Center
11:49AM 27.5075 -80.4089 74° East 93 107 900 -240 Descending Miami Center
11:50AM 27.5286 -80.4000 20° North 79 91 1,000 -180 Climbing Miami Center
11:51AM 27.5100 -80.3878 150° Southeast 41 47 600 -420 Descending Miami Center